Time;durP1;ratioP1;P1;durP2;ratioP2;P2;SDS_P1;SDS_P2;PMS_P1;PMS_P2;Temp;Humidity;BMP_temperature;BMP_pressure;BME280_temperature;BME280_humidity;BME280_pressure;Samples;Min_cycle;Max_cycle;Signal;HPM_P1;HPM_P2
2023/07/13 00:01:51;;;;;;;49.63;45.72;;;;;;;12.29;100.00;100798.06;5052667;28;20115;-78
2023/07/13 00:04:20;;;;;;;49.67;45.47;;;;;;;12.30;100.00;100797.00;5020456;28;20041;-76
2023/07/13 00:06:47;;;;;;;44.80;41.20;;;;;;;12.27;100.00;100803.63;5037237;28;20048;-75
2023/07/13 00:09:16;;;;;;;40.17;37.30;;;;;;;12.26;100.00;100801.13;5020730;28;20021;-76
2023/07/13 00:11:48;;;;;;;38.58;35.65;;;;;;;12.28;100.00;100799.91;5020672;28;20033;-77
2023/07/13 00:14:16;;;;;;;34.78;32.22;;;;;;;12.29;100.00;100803.44;5021886;28;20128;-76
2023/07/13 00:16:43;;;;;;;36.03;33.35;;;;;;;12.30;100.00;100797.00;5036721;28;20112;-76
2023/07/13 00:19:12;;;;;;;29.13;26.90;;;;;;;12.25;100.00;100791.34;5037225;28;20041;-76
2023/07/13 00:21:42;;;;;;;23.25;21.60;;;;;;;12.18;100.00;100779.66;5020274;28;20025;-77
2023/07/13 00:24:15;;;;;;;21.00;19.10;;;;;;;12.21;100.00;100792.75;5020309;28;20563;-76
2023/07/13 00:26:47;;;;;;;19.73;18.35;;;;;;;12.19;100.00;100800.19;5037642;28;20037;-75
2023/07/13 00:29:13;;;;;;;16.17;14.70;;;;;;;12.16;100.00;100797.88;5020214;28;20411;-77
2023/07/13 00:31:44;;;;;;;13.43;12.07;;;;;;;12.15;100.00;100802.41;5036459;28;20440;-76
2023/07/13 00:34:10;;;;;;;11.10;9.30;;;;;;;12.19;100.00;100794.78;5019663;28;20040;-76
2023/07/13 00:36:45;;;;;;;9.13;8.10;;;;;;;12.22;100.00;100806.03;5019916;28;20059;-75
2023/07/13 00:39:18;;;;;;;9.52;6.78;;;;;;;12.20;100.00;100800.00;5052925;28;20033;-76
2023/07/13 00:41:47;;;;;;;11.52;10.60;;;;;;;12.22;100.00;100802.50;5020525;28;20175;-76
2023/07/13 00:44:23;;;;;;;8.75;7.75;;;;;;;12.23;100.00;100804.19;5019847;28;20024;-76
2023/07/13 00:46:55;;;;;;;9.88;8.10;;;;;;;12.27;100.00;100802.78;5052756;28;20036;-76
2023/07/13 00:49:28;;;;;;;8.60;6.38;;;;;;;12.16;100.00;100777.13;5021009;28;20036;-75
2023/07/13 00:52:03;;;;;;;7.68;5.40;;;;;;;12.36;100.00;100798.97;5052446;28;20436;-75
2023/07/13 00:54:39;;;;;;;9.35;5.78;;;;;;;12.23;100.00;100775.38;5035736;28;20036;-76
2023/07/13 00:57:09;;;;;;;8.65;5.70;;;;;;;12.46;100.00;100795.97;5019509;28;20029;-76
2023/07/13 00:59:37;;;;;;;6.47;4.75;;;;;;;12.50;100.00;100794.59;5019640;28;20131;-76
2023/07/13 01:02:04;;;;;;;7.72;5.28;;;;;;;12.23;100.00;100740.31;5035759;28;20029;-76
2023/07/13 01:04:31;;;;;;;6.97;5.28;;;;;;;12.55;100.00;100789.47;5035843;28;20116;-76
2023/07/13 01:07:00;;;;;;;8.70;4.78;;;;;;;12.43;100.00;100764.84;5019707;28;20036;-75
2023/07/13 01:09:28;;;;;;;5.22;4.13;;;;;;;12.59;100.00;100788.06;5019553;28;20052;-76
2023/07/13 01:12:03;;;;;;;8.45;5.47;;;;;;;12.51;100.00;100777.38;5019087;28;20033;-75
2023/07/13 01:14:41;;;;;;;8.73;3.97;;;;;;;12.54;100.00;100790.50;5035097;28;20036;-75
2023/07/13 01:17:15;;;;;;;6.00;4.47;;;;;;;12.50;100.00;100779.25;5019667;28;20028;-75
2023/07/13 01:19:45;;;;;;;6.28;5.68;;;;;;;12.42;100.00;100776.66;5019667;28;20049;-75
2023/07/13 01:22:16;;;;;;;7.68;5.25;;;;;;;12.41;100.00;100779.53;5035425;28;20028;-75
2023/07/13 01:24:46;;;;;;;6.10;4.85;;;;;;;12.38;100.00;100769.13;5019486;28;20036;-75
2023/07/13 01:27:15;;;;;;;6.93;4.22;;;;;;;12.47;100.00;100778.81;5035927;28;20060;-76
2023/07/13 01:29:47;;;;;;;10.35;4.55;;;;;;;12.48;100.00;100788.56;5052497;28;20028;-75
2023/07/13 01:32:23;;;;;;;7.20;4.82;;;;;;;12.53;100.00;100780.72;5052057;28;20040;-77
2023/07/13 01:34:55;;;;;;;6.28;5.10;;;;;;;12.51;100.00;100778.22;5051950;28;20116;-76
2023/07/13 01:37:27;;;;;;;5.43;4.65;;;;;;;12.41;100.00;100748.03;5019863;28;20029;-76
2023/07/13 01:39:56;;;;;;;8.50;5.47;;;;;;;12.63;100.00;100766.97;5019315;28;20040;-75
2023/07/13 01:42:24;;;;;;;6.30;4.40;;;;;;;12.57;100.00;100760.47;5019354;28;20040;-76
2023/07/13 01:45:06;;;;;;;7.32;4.43;;;;;;;12.63;100.00;100767.78;5019049;28;20102;-76
2023/07/13 01:47:31;;;;;;;5.80;4.30;;;;;;;12.54;100.00;100758.97;5035428;28;20387;-75
2023/07/13 01:49:57;;;;;;;5.68;4.13;;;;;;;12.63;100.00;100767.78;5018883;28;20029;-75
2023/07/13 01:52:23;;;;;;;7.20;3.92;;;;;;;12.64;100.00;100761.34;5035177;28;20029;-76
2023/07/13 01:54:54;;;;;;;6.75;4.10;;;;;;;12.70;100.00;100768.72;5035381;28;20044;-75
2023/07/13 01:57:23;;;;;;;6.05;3.50;;;;;;;12.69;100.00;100764.34;5035414;28;20063;-76
2023/07/13 01:59:48;;;;;;;6.15;3.38;;;;;;;12.70;100.00;100765.16;5019405;28;20044;-75
2023/07/13 02:02:14;;;;;;;5.75;3.85;;;;;;;12.73;100.00;100762.94;5034920;28;20395;-75
2023/07/13 02:04:43;;;;;;;7.70;3.40;;;;;;;12.65;100.00;100736.06;5035046;28;20069;-76
2023/07/13 02:07:09;;;;;;;6.18;3.00;;;;;;;12.67;100.00;100744.78;5018841;28;20032;-77
2023/07/13 02:09:35;;;;;;;6.05;3.08;;;;;;;12.77;100.00;100752.59;5051822;28;20033;-75
2023/07/13 02:12:01;;;;;;;6.70;3.50;;;;;;;12.79;100.00;100753.25;5035380;28;20041;-75
2023/07/13 02:14:26;;;;;;;6.57;3.63;;;;;;;12.76;100.00;100757.16;5051927;28;20480;-76
2023/07/13 02:16:52;;;;;;;5.07;2.88;;;;;;;12.81;100.00;100750.34;5018809;28;20045;-76
2023/07/13 02:19:18;;;;;;;4.72;3.10;;;;;;;12.77;100.00;100753.41;5035549;28;20426;-76
2023/07/13 02:21:43;;;;;;;4.15;3.00;;;;;;;12.73;100.00;100760.25;5035227;28;20460;-76
2023/07/13 02:24:17;;;;;;;7.05;2.95;;;;;;;12.65;100.00;100760.34;5035559;28;20111;-76
2023/07/13 02:26:47;;;;;;;7.53;2.70;;;;;;;12.62;100.00;100766.13;5055514;28;20116;-75
2023/07/13 02:29:18;;;;;;;5.13;2.70;;;;;;;12.61;100.00;100763.63;5022969;28;20035;-76
2023/07/13 02:31:46;;;;;;;7.25;2.88;;;;;;;12.51;100.00;100764.72;5022617;28;20040;-76
2023/07/13 02:34:14;;;;;;;6.82;2.70;;;;;;;12.39;100.00;100757.34;5022932;28;20063;-76
2023/07/13 02:36:40;;;;;;;5.30;2.15;;;;;;;12.13;100.00;100747.03;5038572;28;20068;-76
2023/07/13 02:39:06;;;;;;;5.35;2.33;;;;;;;12.08;100.00;100759.19;5038824;28;20071;-75
2023/07/13 02:41:35;;;;;;;4.40;2.80;;;;;;;11.87;100.00;100761.78;5038859;28;20025;-76
2023/07/13 02:44:03;;;;;;;4.53;3.67;;;;;;;11.56;100.00;100738.47;5038339;28;20083;-76
2023/07/13 02:46:33;;;;;;;4.20;2.00;;;;;;;11.56;100.00;100759.19;5038989;28;20033;-75
2023/07/13 02:49:04;;;;;;;4.93;2.40;;;;;;;11.49;100.00;100758.25;5022322;28;20044;-75
2023/07/13 02:51:30;;;;;;;6.70;3.28;;;;;;;11.41;100.00;100759.16;5054860;28;20029;-76
2023/07/13 02:53:56;;;;;;;3.90;2.30;;;;;;;11.40;100.00;100761.00;5054750;28;20055;-76
2023/07/13 02:56:31;;;;;;;5.70;2.42;;;;;;;11.53;100.00;100767.63;5022137;28;20044;-75
2023/07/13 02:59:00;;;;;;;4.43;2.92;;;;;;;11.72;100.00;100768.97;5022413;28;20126;-76
2023/07/13 03:01:28;;;;;;;4.55;2.72;;;;;;;11.86;100.00;100770.91;5021843;28;20064;-75
2023/07/13 03:04:01;;;;;;;10.45;2.47;;;;;;;11.92;100.00;100772.00;5054686;28;20029;-76
2023/07/13 03:06:30;;;;;;;55.83;50.75;;;;;;;11.92;100.00;100763.94;5021608;28;20068;-76
2023/07/13 03:08:56;;;;;;;40.90;37.70;;;;;;;11.84;100.00;100762.94;5022179;28;20028;-76
2023/07/13 03:11:22;;;;;;;37.97;35.42;;;;;;;11.61;100.00;100740.63;5038147;28;20036;-76
2023/07/13 03:13:53;;;;;;;37.88;35.47;;;;;;;11.47;100.00;100736.06;5022572;28;20368;-76
2023/07/13 03:16:24;;;;;;;37.08;34.60;;;;;;;11.43;100.00;100757.97;5038212;28;20036;-75
2023/07/13 03:18:53;;;;;;;28.70;26.92;;;;;;;11.33;100.00;100751.16;5021496;28;20036;-75
2023/07/13 03:21:18;;;;;;;18.67;17.38;;;;;;;11.14;100.00;100750.63;5021380;28;20040;-75
2023/07/13 03:23:44;;;;;;;17.15;16.00;;;;;;;11.19;100.00;100768.91;5021707;28;20395;-75
2023/07/13 03:26:13;;;;;;;28.70;26.60;;;;;;;11.15;100.00;100762.22;5038195;28;20037;-76
2023/07/13 03:28:39;;;;;;;31.63;29.40;;;;;;;11.05;100.00;100757.06;5021445;28;20036;-76
2023/07/13 03:31:08;;;;;;;23.40;21.88;;;;;;;10.91;100.00;100765.91;5054166;28;20056;-76
2023/07/13 03:33:35;;;;;;;29.58;27.60;;;;;;;10.89;100.00;100773.31;5071224;28;20479;-76
2023/07/13 03:36:03;;;;;;;13.80;12.82;;;;;;;10.94;100.00;100766.38;5020389;28;20029;-75
2023/07/13 03:38:29;;;;;;;22.85;21.25;;;;;;;10.96;100.00;100745.53;5021151;28;20033;-76
2023/07/13 03:40:55;;;;;;;21.27;19.48;;;;;;;11.22;100.00;100761.31;5020824;28;20031;-75
2023/07/13 03:43:21;;;;;;;37.67;34.92;;;;;;;11.31;100.00;100755.88;5036771;28;20029;-76
2023/07/13 03:45:47;;;;;;;33.72;31.10;;;;;;;11.29;100.00;100747.13;5086391;28;20144;-76
2023/07/13 03:48:14;;;;;;;36.10;33.63;;;;;;;11.42;100.00;100758.97;5053647;28;20021;-76
2023/07/13 03:50:40;;;;;;;19.90;18.17;;;;;;;11.32;100.00;100742.22;5037655;28;20045;-75
2023/07/13 03:53:06;;;;;;;9.05;7.28;;;;;;;11.44;100.00;100764.19;5053911;28;20144;-76
2023/07/13 03:55:31;;;;;;;11.55;7.45;;;;;;;11.34;100.00;100750.94;5020567;28;20045;-76
2023/07/13 03:58:00;;;;;;;5.93;3.28;;;;;;;11.38;100.00;100770.28;5037479;28;20098;-76
2023/07/13 04:00:26;;;;;;;7.97;3.10;;;;;;;11.16;100.00;100750.44;5053400;28;20589;-76
2023/07/13 04:02:52;;;;;;;6.70;3.38;;;;;;;11.09;100.00;100755.69;5020818;28;20041;-76
2023/07/13 04:05:18;;;;;;;5.25;2.38;;;;;;;11.13;100.00;100772.31;5037230;28;20029;-76
2023/07/13 04:07:44;;;;;;;8.75;3.20;;;;;;;11.18;100.00;100769.94;5053311;28;20021;-76
2023/07/13 04:10:12;;;;;;;11.88;3.25;;;;;;;11.23;100.00;100770.22;5020673;28;20065;-76
2023/07/13 04:12:44;;;;;;;9.25;3.03;;;;;;;11.27;100.00;100771.53;5053255;28;20037;-75
2023/07/13 04:15:11;;;;;;;7.85;2.75;;;;;;;11.28;100.00;100767.00;5037146;28;20029;-75
2023/07/13 04:17:38;;;;;;;8.60;3.38;;;;;;;11.30;100.00;100776.56;5036576;28;20037;-75
2023/07/13 04:20:12;;;;;;;9.20;2.97;;;;;;;11.23;100.00;100762.16;5052767;28;20025;-76
2023/07/13 04:22:40;;;;;;;6.32;2.65;;;;;;;11.18;100.00;100759.16;5020412;28;20032;-76
2023/07/13 04:25:25;;;;;;;8.95;2.72;;;;;;;11.26;100.00;100786.00;5019658;28;20047;-78
2023/07/13 04:28:08;;;;;;;7.32;2.70;;;;;;;11.22;100.00;100782.84;5021762;28;20033;-77
2023/07/13 04:31:06;;;;;;;19.33;3.80;;;;;;;11.26;100.00;100779.81;5022253;28;20043;-77
2023/07/13 04:33:45;;;;;;;6.65;2.53;;;;;;;11.32;100.00;100781.75;5052761;28;20029;-78
2023/07/13 04:36:18;;;;;;;3.65;2.08;;;;;;;11.37;100.00;100788.28;5036811;28;20072;-78
2023/07/13 04:38:47;;;;;;;10.60;2.95;;;;;;;11.38;100.00;100794.53;5020885;28;20039;-77
2023/07/13 04:41:29;;;;;;;8.07;3.65;;;;;;;11.28;100.00;100772.38;5037357;28;20035;-76
2023/07/13 04:43:56;;;;;;;6.57;3.08;;;;;;;11.49;100.00;100793.25;5036311;28;20048;-77
2023/07/13 04:46:23;;;;;;;9.65;3.63;;;;;;;11.49;100.00;100794.09;5036320;28;20033;-77
2023/07/13 04:48:53;;;;;;;7.35;2.92;;;;;;;11.54;100.00;100798.94;5052387;28;20044;-77
2023/07/13 04:51:33;;;;;;;7.75;3.17;;;;;;;11.55;100.00;100797.91;5019852;28;20115;-77
2023/07/13 04:54:37;;;;;;;5.88;2.92;;;;;;;11.47;100.00;100797.97;5022382;28;20067;-77
2023/07/13 04:57:17;;;;;;;6.20;2.63;;;;;;;11.30;100.00;100784.66;5051421;28;20175;-77
2023/07/13 05:00:01;;;;;;;4.65;2.70;;;;;;;11.44;100.00;100816.16;5036066;28;20058;-77
2023/07/13 05:02:40;;;;;;;7.07;3.40;;;;;;;11.44;100.00;100802.69;5050891;28;20162;-82
2023/07/13 05:05:27;;;;;;;5.03;3.17;;;;;;;11.38;100.00;100800.75;5009411;28;20048;-83
2023/07/13 05:11:04;;;;;;;6.05;2.85;;;;;;;11.21;100.00;100818.00;5052869;28;20125;-80
2023/07/13 05:13:33;;;;;;;6.32;2.45;;;;;;;10.97;100.00;100759.81;5052353;28;20071;-80
2023/07/13 05:16:03;;;;;;;7.40;2.80;;;;;;;11.35;100.00;100817.25;5052687;28;20090;-79
2023/07/13 05:18:29;;;;;;;4.72;2.50;;;;;;;11.26;100.00;100791.41;5036133;28;20115;-80
2023/07/13 05:21:04;;;;;;;4.18;2.58;;;;;;;11.54;100.00;100810.53;5019534;28;20041;-80
2023/07/13 05:23:35;;;;;;;6.82;2.50;;;;;;;11.64;100.00;100810.28;5018929;28;20033;-79
2023/07/13 05:26:02;;;;;;;6.93;2.05;;;;;;;11.72;100.00;100798.59;5020159;28;20029;-79
2023/07/13 05:28:34;;;;;;;8.65;2.40;;;;;;;11.91;100.00;100817.00;5019517;28;20060;-80
2023/07/13 05:31:03;;;;;;;7.78;2.38;;;;;;;12.21;100.00;100822.41;5052584;28;20040;-80
2023/07/13 05:33:31;;;;;;;5.65;2.55;;;;;;;12.42;100.00;100817.09;5019185;28;20379;-79
2023/07/13 05:36:03;;;;;;;8.82;2.35;;;;;;;12.21;100.00;100801.66;5019506;28;20771;-81
2023/07/13 05:38:29;;;;;;;5.45;2.13;;;;;;;12.01;100.00;100800.53;5015761;28;20090;-79
2023/07/13 05:40:58;;;;;;;6.00;2.63;;;;;;;11.86;100.00;100814.00;5018918;28;20033;-80
2023/07/13 05:43:24;;;;;;;4.90;2.10;;;;;;;11.76;100.00;100816.91;5051725;28;20029;-79
2023/07/13 05:45:56;;;;;;;4.63;2.22;;;;;;;11.68;100.00;100825.06;5019092;28;20529;-81
2023/07/13 05:48:24;;;;;;;3.90;2.28;;;;;;;11.52;100.00;100795.59;5035831;28;20124;-79
2023/07/13 05:50:50;;;;;;;3.72;1.92;;;;;;;11.84;100.00;100824.91;5035229;28;20040;-80
2023/07/13 05:53:15;;;;;;;5.25;2.47;;;;;;;11.80;100.00;100815.53;5018657;28;20029;-80
2023/07/13 05:55:49;;;;;;;3.05;2.20;;;;;;;12.10;100.00;100837.19;5035660;28;20029;-79
2023/07/13 05:58:19;;;;;;;4.00;1.90;;;;;;;12.02;100.00;100826.47;5035665;28;20476;-79
2023/07/13 06:00:46;;;;;;;7.57;6.72;;;;;;;12.31;100.00;100822.97;5038779;28;20021;-80
2023/07/13 06:03:11;;;;;;;6.20;2.92;;;;;;;13.37;100.00;100826.97;5022685;28;20383;-79
2023/07/13 06:05:38;;;;;;;6.07;2.38;;;;;;;14.25;100.00;100832.06;5055559;28;20041;-79
2023/07/13 06:08:06;;;;;;;7.72;2.10;;;;;;;14.95;100.00;100840.97;5039197;28;20060;-78
2023/07/13 06:10:33;;;;;;;12.50;11.23;;;;;;;15.16;100.00;100812.91;5039335;28;20021;-79
2023/07/13 06:13:03;;;;;;;4.78;2.20;;;;;;;15.58;100.00;100833.41;5039508;28;20126;-79
2023/07/13 06:15:28;;;;;;;11.35;10.48;;;;;;;15.55;100.00;100844.69;5039559;28;20083;-80
2023/07/13 06:18:00;;;;;;;5.78;2.17;;;;;;;15.38;100.00;100844.25;5038908;28;20041;-83
2023/07/13 06:20:27;;;;;;;6.85;2.97;;;;;;;15.39;100.00;100853.19;5055899;28;20119;-80
2023/07/13 06:22:52;;;;;;;6.25;1.75;;;;;;;15.80;100.00;100855.81;5038988;28;20122;-81
2023/07/13 06:25:36;;;;;;;4.30;1.85;;;;;;;15.37;100.00;100853.44;5039074;28;20450;-82
2023/07/13 06:28:03;;;;;;;3.58;2.00;;;;;;;15.39;100.00;100828.81;5022348;28;20067;-79
2023/07/13 06:30:32;;;;;;;4.88;1.90;;;;;;;15.70;100.00;100854.53;5038427;28;20070;-80
2023/07/13 06:32:58;;;;;;;5.43;2.17;;;;;;;16.47;100.00;100836.75;5038567;28;20040;-79
2023/07/13 06:35:24;;;;;;;3.90;2.10;;;;;;;17.23;100.00;100840.66;5022617;28;20032;-81
2023/07/13 06:37:49;;;;;;;3.85;2.15;;;;;;;18.15;100.00;100843.72;5039509;28;20040;-80
2023/07/13 06:40:15;;;;;;;6.45;2.22;;;;;;;18.57;100.00;100852.09;5055063;28;20025;-80
2023/07/13 06:42:41;;;;;;;6.82;2.05;;;;;;;18.17;100.00;100811.69;5022039;28;20048;-81
2023/07/13 06:45:10;;;;;;;5.93;2.00;;;;;;;18.01;100.00;100843.84;5055093;28;20036;-81
2023/07/13 06:47:37;;;;;;;4.03;1.70;;;;;;;17.63;100.00;100838.50;5054897;28;20029;-81
2023/07/13 06:50:03;;;;;;;7.05;5.32;;;;;;;17.30;100.00;100841.44;5021745;28;20554;-83
2023/07/13 06:52:35;;;;;;;9.05;8.13;;;;;;;17.10;100.00;100844.28;5054668;28;20100;-80
2023/07/13 06:55:03;;;;;;;5.22;2.17;;;;;;;17.30;100.00;100825.94;5018297;28;20029;-81
2023/07/13 06:57:32;;;;;;;7.03;1.63;;;;;;;17.56;100.00;100843.16;5038238;28;20040;-81
2023/07/13 06:59:58;;;;;;;3.55;1.70;;;;;;;17.06;100.00;100830.25;5050351;28;20123;-80
2023/07/13 07:02:32;;;;;;;6.85;2.30;;;;;;;16.92;100.00;100843.09;5020957;28;20029;-83
2023/07/13 07:04:58;;;;;;;6.22;2.20;;;;;;;16.96;100.00;100838.03;5022055;28;20123;-82
2023/07/13 07:07:28;;;;;;;4.70;1.95;;;;;;;17.20;100.00;100843.78;5054555;28;20438;-83
2023/07/13 07:09:55;;;;;;;6.40;2.17;;;;;;;17.14;100.00;100821.84;5038378;28;20043;-82
2023/07/13 07:12:21;;;;;;;4.20;1.95;;;;;;;17.24;100.00;100828.72;5020540;28;20041;-81
2023/07/13 07:14:47;;;;;;;6.18;2.10;;;;;;;17.37;100.00;100836.78;5054392;28;20033;-81
2023/07/13 07:17:16;;;;;;;8.98;2.72;;;;;;;17.65;100.00;100849.13;5037769;28;20480;-82
2023/07/13 07:19:42;;;;;;;5.80;2.47;;;;;;;18.01;100.00;100832.16;5055285;28;20486;-80
2023/07/13 07:22:10;;;;;;;7.68;2.38;;;;;;;18.28;100.00;100830.00;5021254;28;20076;-81
2023/07/13 07:24:46;;;;;;;5.35;2.03;;;;;;;18.27;100.00;100841.94;5021316;28;20029;-83
2023/07/13 07:27:14;;;;;;;5.72;2.05;;;;;;;18.24;100.00;100847.84;5053903;28;20090;-83
2023/07/13 07:29:45;;;;;;;6.45;1.83;;;;;;;18.00;100.00;100820.44;5020098;28;20029;-83
2023/07/13 07:32:21;;;;;;;6.63;2.00;;;;;;;18.00;100.00;100847.66;5037607;28;20040;-82
2023/07/13 07:34:51;;;;;;;4.38;1.75;;;;;;;17.30;100.00;100822.41;5037509;28;20435;-81
2023/07/13 07:37:22;;;;;;;5.05;1.80;;;;;;;17.02;100.00;100852.66;5021435;28;20037;-81
2023/07/13 07:39:50;;;;;;;6.72;1.85;;;;;;;16.77;100.00;100852.50;5052926;28;20033;-82
2023/07/13 07:42:22;;;;;;;5.10;1.52;;;;;;;16.40;100.00;100825.06;5053253;28;20025;-81
2023/07/13 07:44:47;;;;;;;3.55;1.70;;;;;;;16.53;100.00;100851.34;5053740;28;20471;-80
2023/07/13 07:47:13;;;;;;;3.50;1.70;;;;;;;16.68;100.00;100850.03;5053959;28;20040;-79
2023/07/13 07:49:55;;;;;;;6.55;2.03;;;;;;;17.03;100.00;100855.16;5054080;28;20507;-82
2023/07/13 07:52:23;;;;;;;3.90;1.40;;;;;;;17.40;100.00;100849.94;5054158;28;20059;-82
2023/07/13 07:55:00;;;;;;;4.18;1.83;;;;;;;17.79;100.00;100858.91;5054079;28;20060;-82
2023/07/13 07:57:27;;;;;;;3.55;1.58;;;;;;;18.22;100.00;100863.56;5020744;28;20037;-81
2023/07/13 07:59:55;;;;;;;2.22;1.10;;;;;;;18.91;100.00;100860.75;5053302;28;20078;-82
2023/07/13 08:02:24;;;;;;;6.78;1.88;;;;;;;18.97;100.00;100852.50;5020905;28;20029;-79
2023/07/13 08:04:50;;;;;;;2.53;1.38;;;;;;;19.59;100.00;100846.00;5020916;28;20033;-79
2023/07/13 08:07:16;;;;;;;3.55;1.25;;;;;;;19.67;94.90;100851.97;5053406;28;20373;-80
2023/07/13 08:09:44;;;;;;;2.53;1.58;;;;;;;20.46;91.11;100859.84;5036970;28;20041;-82
2023/07/13 08:12:26;;;;;;;6.00;1.55;;;;;;;20.98;85.02;100857.16;5036876;28;20064;-82
2023/07/13 08:15:17;;;;;;;3.97;1.65;;;;;;;19.00;92.44;100851.19;5024710;28;20098;-81
2023/07/13 08:17:45;;;;;;;6.47;1.92;;;;;;;18.10;98.05;100868.91;5019665;28;20029;-84
2023/07/13 08:20:18;;;;;;;1.98;1.30;;;;;;;17.35;100.00;100860.63;5035884;28;20037;-80
2023/07/13 08:22:46;;;;;;;5.07;1.55;;;;;;;16.65;100.00;100855.91;5034424;28;20079;-81
2023/07/13 08:25:18;;;;;;;5.78;1.80;;;;;;;16.05;100.00;100858.72;5018798;28;20033;-79
2023/07/13 08:27:43;;;;;;;4.40;1.60;;;;;;;15.71;100.00;100856.19;5019331;28;20456;-82
2023/07/13 08:30:09;;;;;;;4.32;1.60;;;;;;;15.64;100.00;100845.34;5034584;28;20035;-82
2023/07/13 08:32:36;;;;;;;5.53;1.75;;;;;;;15.65;100.00;100857.84;5034383;28;20371;-82
2023/07/13 08:35:02;;;;;;;4.22;1.95;;;;;;;15.86;100.00;100859.56;5018165;28;20037;-82
2023/07/13 08:37:29;;;;;;;4.90;1.80;;;;;;;15.94;100.00;100844.97;5036915;28;20044;-81
2023/07/13 08:39:55;;;;;;;3.47;1.83;;;;;;;15.92;100.00;100833.47;5054441;28;20025;-82
2023/07/13 08:42:42;;;;;;;5.40;1.90;;;;;;;15.87;100.00;100855.78;5052908;28;20028;-82
2023/07/13 08:45:14;;;;;;;3.90;1.77;;;;;;;15.77;100.00;100850.81;5036772;28;20029;-80
2023/07/13 08:47:55;;;;;;;3.08;1.92;;;;;;;15.85;100.00;100844.34;5036470;28;20033;-79
2023/07/13 08:50:26;;;;;;;8.85;2.85;;;;;;;15.90;100.00;100846.41;5036594;28;20040;-82
2023/07/13 08:52:53;;;;;;;8.43;5.22;;;;;;;16.15;100.00;100839.31;5052790;28;20437;-82
2023/07/13 08:55:25;;;;;;;4.47;2.20;;;;;;;16.24;100.00;100804.63;5035951;28;20068;-84
2023/07/13 08:58:02;;;;;;;5.50;2.60;;;;;;;16.33;100.00;100848.69;5019936;28;20033;-84
2023/07/13 09:00:45;;;;;;;7.78;2.58;;;;;;;16.01;100.00;100818.69;5019969;28;20037;-84
2023/07/13 09:03:24;;;;;;;8.27;4.82;;;;;;;16.15;100.00;100833.88;5019882;28;20040;-82
2023/07/13 09:05:54;;;;;;;18.73;16.80;;;;;;;16.26;100.00;100819.66;5052474;28;20108;-82
2023/07/13 09:08:23;;;;;;;9.88;6.53;;;;;;;16.29;100.00;100801.31;5036342;28;20071;-84
2023/07/13 09:10:57;;;;;;;4.13;1.70;;;;;;;16.58;100.00;100819.78;5052415;28;20064;-82
2023/07/13 09:13:28;;;;;;;;;;;;;;;17.02;100.00;100856.22;5020128;28;20128;-81
2023/07/13 09:15:54;;;;;;;4.35;2.15;;;;;;;17.01;100.00;100849.09;5069241;28;20004;-80
2023/07/13 09:18:27;;;;;;;3.63;1.98;;;;;;;17.06;100.00;100840.31;5019462;28;20111;-82
2023/07/13 09:20:58;;;;;;;6.85;2.22;;;;;;;17.36;100.00;100852.28;5051994;28;20055;-80
2023/07/13 09:23:29;;;;;;;3.88;2.03;;;;;;;17.73;100.00;100846.16;5052358;28;20505;-80
2023/07/13 09:26:21;;;;;;;;;;;;;;;17.94;100.00;100853.97;5020767;28;20258;-80
2023/07/13 09:29:20;;;;;;;9.70;9.00;;;;;;;18.15;100.00;100852.75;5051417;28;20419;-80
2023/07/13 09:31:52;;;;;;;;;;;;;;;18.21;100.00;100851.03;5036570;28;20037;-79
2023/07/13 09:34:20;;;;;;;4.43;2.17;;;;;;;17.91;100.00;100840.81;5067701;28;19913;-81
2023/07/13 09:36:46;;;;;;;3.35;1.75;;;;;;;17.61;100.00;100858.81;5035609;28;20029;-81
2023/07/13 09:39:12;;;;;;;5.53;1.83;;;;;;;17.49;100.00;100854.09;5035561;28;20041;-81
2023/07/13 09:41:50;;;;;;;4.28;1.63;;;;;;;17.40;100.00;100830.91;5051712;28;20056;-81
2023/07/13 09:44:30;;;;;;;6.57;2.35;;;;;;;17.49;100.00;100847.78;5052302;28;20383;-79
2023/07/13 09:46:56;;;;;;;4.50;1.52;;;;;;;17.43;100.00;100856.81;5019777;28;20028;-81
2023/07/13 09:49:35;;;;;;;2.65;1.55;;;;;;;17.50;100.00;100854.91;5019151;28;20041;-81
2023/07/13 09:52:12;;;;;;;5.00;1.40;;;;;;;17.57;100.00;100871.97;5052194;28;20029;-82
2023/07/13 09:54:48;;;;;;;2.33;1.13;;;;;;;17.38;100.00;100862.91;5020601;28;20476;-82
2023/07/13 09:57:19;;;;;;;4.57;1.98;;;;;;;17.11;100.00;100848.63;5035623;28;20033;-81
2023/07/13 09:59:51;;;;;;;3.80;1.75;;;;;;;17.14;100.00;100850.91;5036237;28;20164;-83
2023/07/13 10:02:28;;;;;;;3.85;1.67;;;;;;;17.30;100.00;100860.44;5034830;28;20407;-82
2023/07/13 10:05:12;;;;;;;1.77;1.08;;;;;;;17.22;100.00;100858.81;5052874;28;20043;-82
2023/07/13 10:07:44;;;;;;;2.45;1.27;;;;;;;16.92;100.00;100867.53;5048293;28;20059;-81
2023/07/13 10:10:15;;;;;;;3.60;0.98;;;;;;;16.64;100.00;100865.06;5035393;28;20033;-80
2023/07/13 10:12:43;;;;;;;1.80;0.90;;;;;;;16.52;100.00;100866.78;5034850;28;20136;-84
2023/07/13 10:15:32;;;;;;;;;;;;;;;16.47;100.00;100864.72;5036151;28;20128;-82
2023/07/13 10:17:58;;;;;;;1.58;0.70;;;;;;;16.32;100.00;100868.69;5054246;28;20291;-83
2023/07/13 10:20:31;;;;;;;1.95;1.00;;;;;;;16.19;100.00;100853.28;5018947;28;20064;-82
2023/07/13 10:23:00;;;;;;;1.57;0.70;;;;;;;16.23;100.00;100877.06;5035756;28;20434;-82
2023/07/13 10:25:36;;;;;;;1.80;1.00;;;;;;;16.07;100.00;100871.25;5035101;28;20120;-82
2023/07/13 10:28:26;;;;;;;2.08;1.15;;;;;;;16.02;100.00;100856.41;5051876;28;20041;-82
2023/07/13 10:30:54;;;;;;;3.53;1.20;;;;;;;16.15;100.00;100871.03;5018460;28;20386;-80
2023/07/13 10:33:22;;;;;;;2.95;1.30;;;;;;;16.02;100.00;100872.69;5018665;28;20037;-82
2023/07/13 10:35:51;;;;;;;2.85;1.02;;;;;;;15.95;100.00;100868.31;5034840;28;20071;-83
2023/07/13 10:38:23;;;;;;;2.42;1.17;;;;;;;15.79;100.00;100873.09;5051620;28;20045;-82
2023/07/13 10:41:03;;;;;;;3.35;1.00;;;;;;;15.49;100.00;100825.72;5017934;28;20033;-83
2023/07/13 10:43:36;;;;;;;2.53;1.25;;;;;;;15.57;100.00;100849.91;5018873;28;20045;-82
2023/07/13 10:46:05;;;;;;;2.75;1.38;;;;;;;15.60;100.00;100869.28;5036997;28;20447;-82
2023/07/13 10:48:34;;;;;;;2.92;1.33;;;;;;;15.50;100.00;100858.00;5038268;28;20067;-81
2023/07/13 10:51:01;;;;;;;8.48;7.95;;;;;;;15.51;100.00;100864.28;5022292;28;20041;-82
2023/07/13 10:53:32;;;;;;;2.63;1.48;;;;;;;15.33;100.00;100863.00;5022410;28;20029;-81
2023/07/13 10:56:08;;;;;;;2.65;1.38;;;;;;;15.10;100.00;100851.66;5038561;28;20086;-81
2023/07/13 10:58:42;;;;;;;3.08;1.45;;;;;;;15.15;100.00;100870.84;5054711;28;20029;-82
2023/07/13 11:01:12;;;;;;;3.17;1.38;;;;;;;15.19;100.00;100872.13;5022006;28;20063;-82
2023/07/13 11:04:02;;;;;;;;;;;;;;;;;;;;;
2023/07/13 11:06:53;;;;;;;3.42;1.58;;;;;;;16.08;100.00;100870.19;5038133;28;20041;-84
2023/07/13 11:09:33;;;;;;;1.92;1.10;;;;;;;16.59;100.00;100858.63;5055181;28;20039;-82
2023/07/13 11:12:02;;;;;;;4.60;2.05;;;;;;;17.19;100.00;100855.72;5038222;28;20040;-83
2023/07/13 11:14:35;;;;;;;2.53;1.50;;;;;;;17.11;100.00;100825.00;5038364;28;20423;-82
2023/07/13 11:17:30;;;;;;;2.35;1.25;;;;;;;17.46;100.00;100854.50;5054173;28;20039;-83
2023/07/13 11:20:17;;;;;;;2.33;1.48;;;;;;;17.25;100.00;100850.25;5054501;28;20470;-82
2023/07/13 11:22:48;;;;;;;10.18;2.08;;;;;;;16.82;100.00;100829.13;5055795;28;20033;-82
2023/07/13 11:25:20;;;;;;;4.05;1.88;;;;;;;17.14;100.00;100856.34;5020952;28;20037;-82
2023/07/13 11:27:50;;;;;;;1.63;1.00;;;;;;;17.32;100.00;100848.31;5054752;28;20040;-81
2023/07/13 11:30:19;;;;;;;2.20;1.20;;;;;;;17.72;100.00;100849.94;5037634;28;20075;-81
2023/07/13 11:32:44;;;;;;;1.02;0.90;;;;;;;17.74;100.00;100854.09;5037692;28;20055;-80
2023/07/13 11:35:19;;;;;;;0.40;0.40;;;;;;;18.22;100.00;100848.06;5021205;28;20373;-82
2023/07/13 11:37:49;;;;;;;1.27;0.65;;;;;;;18.54;100.00;100826.16;5020820;28;20037;-80